Address 0x4bae4a1a12f26e26cac5ce7fba5dce201d24c6ef 1

 
 
Txn Hash Method
Block
From
To
Value [Txn Fee]
0x0a506b970b8e5c264c7cab5d55dc28933be1efe89aef2e22fabb4661f65f45cdDeposit128016062021-11-20 8:51:4057 days 48 mins ago0x4bae4a1a12f26e26cac5ce7fba5dce201d24c6efOUT BSC: Validator Set0.449662271947969 BNB0
0xa45e322dbfe28fcccbd275583aae2aa57224c4890dda948ca904943db5eb80ecDeposit128015852021-11-20 8:50:3757 days 49 mins ago0x4bae4a1a12f26e26cac5ce7fba5dce201d24c6efOUT BSC: Validator Set0.408313972268843 BNB0
0x8110f38d19a92254fa8d952d5c6271b3e11ab5772affc627b827140ef9a086d5Deposit128015642021-11-20 8:49:3457 days 50 mins ago0x4bae4a1a12f26e26cac5ce7fba5dce201d24c6efOUT BSC: Validator Set0.373080380154367 BNB0
0x91b5e3e4476195f271abfe0bd6bc36137d461e6e19f01639da0a62228fb44619Deposit128015432021-11-20 8:48:3157 days 51 mins ago0x4bae4a1a12f26e26cac5ce7fba5dce201d24c6efOUT BSC: Validator Set0.342968727580605 BNB0
0x352c9c02ee797c0ed2ce0a28cdde14b55e23f05483519d070777f243ed9d2d7eDeposit128015222021-11-20 8:47:2857 days 52 mins ago0x4bae4a1a12f26e26cac5ce7fba5dce201d24c6efOUT BSC: Validator Set0.430844097714622 BNB0
0xd47d5cf763f178d8260d281237f33b7cec45243b4184b642ac8f02be44458f1aTransfer128015222021-11-20 8:47:2857 days 52 mins ago0x4bae4a1a12f26e26cac5ce7fba5dce201d24c6efOUT BSC: System Reward0.028722939847641 BNB0
0x5491f60029df35da851f5c5f626eb7ad54ec602d7246fceff0c8634a3764e1a9Deposit128015012021-11-20 8:46:2257 days 53 mins ago0x4bae4a1a12f26e26cac5ce7fba5dce201d24c6efOUT BSC: Validator Set0.376021487277014 BNB0
0x74cac33211ac40e522f5fb49a837326d8a5c24518fde85f6d36d9efc1fbeda71Deposit128014802021-11-20 8:45:1457 days 54 mins ago0x4bae4a1a12f26e26cac5ce7fba5dce201d24c6efOUT BSC: Validator Set0.456437635379445 BNB0
0x5d60c519ff0bc1cf5a7992047bdd72155b4fd1fe916e924daa99360466136078Transfer128014802021-11-20 8:45:1457 days 54 mins ago0x4bae4a1a12f26e26cac5ce7fba5dce201d24c6efOUT BSC: System Reward0.030429175691963 BNB0
0x2a77c81809790f2d8cc0de41318e2ad4a511e1bfa2da441d3ed9e7dbe792d2e4Deposit128014382021-11-20 8:42:4857 days 56 mins ago0x4bae4a1a12f26e26cac5ce7fba5dce201d24c6efOUT BSC: Validator Set0.379440568665035 BNB0
0x497c7d8321e2f1b986dc8214d0e3fe7ab8cb62a335a68743e352bf01e35daa6fDeposit128013962021-11-20 8:40:3857 days 59 mins ago0x4bae4a1a12f26e26cac5ce7fba5dce201d24c6efOUT BSC: Validator Set0.0012584 BNB0
0x9e9d10f26f6b7768113012ebe35d6bdbd4b5c759728cabc83a2cd440a6b4d41bDeposit128013752021-11-20 8:39:3557 days 1 hr ago0x4bae4a1a12f26e26cac5ce7fba5dce201d24c6efOUT BSC: Validator Set0.297017180438918 BNB0
0xc20c6b3f967f78ac1366749f73e28dbea03a71c9f9fef1514ebcc3c77c3fabb2Deposit128013542021-11-20 8:38:3257 days 1 hr ago0x4bae4a1a12f26e26cac5ce7fba5dce201d24c6efOUT BSC: Validator Set0.450683121451671 BNB0
0xf1703bc07924eb2017677f624e64b53924bfd008f768aae4b0ce428df41d3e7fDeposit128013332021-11-20 8:37:2957 days 1 hr ago0x4bae4a1a12f26e26cac5ce7fba5dce201d24c6efOUT BSC: Validator Set0.420069426077934 BNB0
0x7337a366f32f9b429ca972d8552f701deb9513c6652d80a0c0f62485b0d7435dTransfer128013332021-11-20 8:37:2957 days 1 hr ago0x4bae4a1a12f26e26cac5ce7fba5dce201d24c6efOUT BSC: System Reward0.028004628405195 BNB0
0x98f540c8424f0a6516271b26222693ea1cecbba85a7595270b4627556c8cfa7aDeposit128013122021-11-20 8:36:2657 days 1 hr ago0x4bae4a1a12f26e26cac5ce7fba5dce201d24c6efOUT BSC: Validator Set0.092482916314024 BNB0
0xa8bb1c33146d2ebfc3eac4b2e10b38dbbe902025d81d21543c3b828a376a070fDeposit128012912021-11-20 8:35:2257 days 1 hr ago0x4bae4a1a12f26e26cac5ce7fba5dce201d24c6efOUT BSC: Validator Set0.330236604187345 BNB0
0x9a4aeb23f63e01b835f40bf39de1343684c16370317be9759a64ccf3a2c74adbDeposit128012702021-11-20 8:34:1957 days 1 hr ago0x4bae4a1a12f26e26cac5ce7fba5dce201d24c6efOUT BSC: Validator Set0.348011073931104 BNB0
0x3d56d6e7ced57b2568227938f85a9a336b15c7cec8d0e3d97d44b374379b9a0bDeposit128012492021-11-20 8:33:1657 days 1 hr ago0x4bae4a1a12f26e26cac5ce7fba5dce201d24c6efOUT BSC: Validator Set0.270581526697569 BNB0
0x642b8cbb2948c1762b5dbf9356e0c11f20a6965e096828387bbf83274e6bc910Deposit128012282021-11-20 8:32:1357 days 1 hr ago0x4bae4a1a12f26e26cac5ce7fba5dce201d24c6efOUT BSC: Validator Set0.400697788614283 BNB0
0xef92ff479aa5e712839ea61c6d57be4eb986ab2aa3d61aa863e989477a9c7905Deposit128012072021-11-20 8:31:1057 days 1 hr ago0x4bae4a1a12f26e26cac5ce7fba5dce201d24c6efOUT BSC: Validator Set0.449159099550812 BNB0
0x6083f243109b3bef2714cf7ac5b9963ee0b55b32764be053cec1e84fa39dd03fDeposit128011862021-11-20 8:30:0757 days 1 hr ago0x4bae4a1a12f26e26cac5ce7fba5dce201d24c6efOUT BSC: Validator Set0.406157542715017 BNB0
0x8d2527ca9281791b5370cdf9def541155b22f94423f81f40eee2783ef7f76a98Deposit128011652021-11-20 8:29:0457 days 1 hr ago0x4bae4a1a12f26e26cac5ce7fba5dce201d24c6efOUT BSC: Validator Set0.517228566715785 BNB0
0x1f54400644106e04b89bcad2b5275ec3731b7ff086f4b4bbaf9070522e70bfa9Deposit128011442021-11-20 8:28:0157 days 1 hr ago0x4bae4a1a12f26e26cac5ce7fba5dce201d24c6efOUT BSC: Validator Set0.427325921282717 BNB0
0x8eb81df7627e578eb11cf4001c7eed4dd07b35bceefbe8217dae2bae35f62d42Deposit128011232021-11-20 8:26:5857 days 1 hr ago0x4bae4a1a12f26e26cac5ce7fba5dce201d24c6efOUT BSC: Validator Set0.27317767745251 BNB0
[ Download CSV Export 
Parent Txn Hash Block From To Value
Loading

Contract Name:
0 BNB

Compiler Version
0

Optimization Enabled:
0 BNB

Other Settings:
-NA-

 Latest 25 blocks (From a total of 39,021 blocks with 13,401.48 BNB in fees)

Block Transaction Gas Used Reward
128016062021-11-20 8:51:4057 days 48 mins ago51383,753,400 (91.38%)
0.449662271947969805 BNB
128015852021-11-20 8:50:3757 days 49 mins ago52579,915,108 (86.99%)
0.408313972268843585 BNB
128015642021-11-20 8:49:3457 days 50 mins ago52470,740,907 (77.10%)
0.373080380154367484 BNB
128015432021-11-20 8:48:3157 days 51 mins ago36761,924,824 (67.45%)
0.342968727580605979 BNB
128015222021-11-20 8:47:2857 days 52 mins ago64383,018,284 (90.42%)
0.459567037562264225 BNB
128015012021-11-20 8:46:2257 days 53 mins ago36268,046,801 (74.33%)
0.376021487277014226 BNB
128014802021-11-20 8:45:1457 days 54 mins ago64890,984,657 (99.46%)
0.486866811071409008 BNB
128014382021-11-20 8:42:4857 days 56 mins ago53970,013,824 (79.02%)
0.379440568665035946 BNB
128013962021-11-20 8:40:3857 days 59 mins ago248,610 (0.06%)
0.0012584 BNB
128013752021-11-20 8:39:3557 days 1 hr ago39456,117,802 (64.01%)
0.297017180438918173 BNB
128013542021-11-20 8:38:3257 days 1 hr ago53484,743,785 (96.45%)
0.450683121451671022 BNB
128013332021-11-20 8:37:2957 days 1 hr ago55286,795,750 (98.72%)
0.44807405448312965 BNB
128013122021-11-20 8:36:2657 days 1 hr ago10313,800,006 (15.74%)
0.092482916314024967 BNB
128012912021-11-20 8:35:2257 days 1 hr ago41263,158,978 (72.21%)
0.330236604187345882 BNB
128012702021-11-20 8:34:1957 days 1 hr ago46466,399,062 (75.43%)
0.34801107393110428 BNB
128012492021-11-20 8:33:1657 days 1 hr ago37046,926,259 (53.25%)
0.27058152669756931 BNB
128012282021-11-20 8:32:1357 days 1 hr ago48172,962,929 (82.94%)
0.400697788614283461 BNB
128012072021-11-20 8:31:1057 days 1 hr ago57673,062,465 (83.45%)
0.449159099550812638 BNB
128011862021-11-20 8:30:0757 days 1 hr ago44775,448,193 (86.07%)
0.40615754271501772 BNB
128011652021-11-20 8:29:0457 days 1 hr ago46883,939,039 (95.64%)
0.517228566715785565 BNB
128011442021-11-20 8:28:0157 days 1 hr ago46261,271,240 (69.65%)
0.427325921282717314 BNB
128011232021-11-20 8:26:5857 days 1 hr ago35450,949,106 (57.65%)
0.273177677452510512 BNB
128011022021-11-20 8:25:5357 days 1 hr ago47269,003,677 (77.95%)
0.43702917431794232 BNB
128010812021-11-20 8:24:5057 days 1 hr ago59384,834,992 (95.79%)
0.447733363530716664 BNB
128010602021-11-20 8:23:4757 days 1 hr ago264,266 (0.07%)
0.002402916 BNB

 Latest 25 Validator Set (From a total of 42280 validator set)

Age Block Fee Address BC Fee Address Voting Power Jailed Incoming
2021-11-20 8:41:0057 days 58 mins ago128014040x18e2ce1da966f8e4afde4a4639cd299b91163aec0x1f35a21d9bd83a476c255f489ccfa369350be02a 963,184.94216462 BNBNo122.153976553058473074 BNB
2021-11-20 8:40:0057 days 59 mins ago128013840x18e2ce1da966f8e4afde4a4639cd299b91163aec0x1f35a21d9bd83a476c255f489ccfa369350be02a 963,184.94216462 BNBNo122.147994560258477074 BNB
2021-11-20 8:39:0057 days 1 hr ago128013640x18e2ce1da966f8e4afde4a4639cd299b91163aec0x1f35a21d9bd83a476c255f489ccfa369350be02a 963,184.94216462 BNBNo121.850977379819558901 BNB
2021-11-20 8:38:0057 days 1 hr ago128013440x18e2ce1da966f8e4afde4a4639cd299b91163aec0x1f35a21d9bd83a476c255f489ccfa369350be02a 963,184.94216462 BNBNo121.400294258367887879 BNB
2021-11-20 8:37:0057 days 1 hr ago128013240x18e2ce1da966f8e4afde4a4639cd299b91163aec0x1f35a21d9bd83a476c255f489ccfa369350be02a 963,184.94216462 BNBNo121.400294258367887879 BNB
2021-11-20 8:36:0057 days 1 hr ago128013040x18e2ce1da966f8e4afde4a4639cd299b91163aec0x1f35a21d9bd83a476c255f489ccfa369350be02a 963,184.94216462 BNBNo120.980224832289953832 BNB
2021-11-20 8:35:0057 days 1 hr ago128012840x18e2ce1da966f8e4afde4a4639cd299b91163aec0x1f35a21d9bd83a476c255f489ccfa369350be02a 963,184.94216462 BNBNo120.887741915975928865 BNB
2021-11-20 8:34:0057 days 1 hr ago128012640x18e2ce1da966f8e4afde4a4639cd299b91163aec0x1f35a21d9bd83a476c255f489ccfa369350be02a 963,184.94216462 BNBNo120.557505311788582983 BNB
2021-11-20 8:33:0057 days 1 hr ago128012440x18e2ce1da966f8e4afde4a4639cd299b91163aec0x1f35a21d9bd83a476c255f489ccfa369350be02a 963,184.94216462 BNBNo120.209494237857478703 BNB
2021-11-20 8:32:0057 days 1 hr ago128012240x18e2ce1da966f8e4afde4a4639cd299b91163aec0x1f35a21d9bd83a476c255f489ccfa369350be02a 963,184.94216462 BNBNo119.938912711159909393 BNB
2021-11-20 8:31:0057 days 1 hr ago128012040x18e2ce1da966f8e4afde4a4639cd299b91163aec0x1f35a21d9bd83a476c255f489ccfa369350be02a 963,184.94216462 BNBNo119.538214922545625932 BNB
2021-11-20 8:30:0057 days 1 hr ago128011840x18e2ce1da966f8e4afde4a4639cd299b91163aec0x1f35a21d9bd83a476c255f489ccfa369350be02a 963,184.94216462 BNBNo119.089055822994813294 BNB
2021-11-20 8:29:0057 days 1 hr ago128011640x18e2ce1da966f8e4afde4a4639cd299b91163aec0x1f35a21d9bd83a476c255f489ccfa369350be02a 963,184.94216462 BNBNo118.682898280279795574 BNB
2021-11-20 8:28:0057 days 1 hr ago128011440x18e2ce1da966f8e4afde4a4639cd299b91163aec0x1f35a21d9bd83a476c255f489ccfa369350be02a 963,184.94216462 BNBNo118.165669713564010009 BNB
2021-11-20 8:27:0057 days 1 hr ago128011240x18e2ce1da966f8e4afde4a4639cd299b91163aec0x1f35a21d9bd83a476c255f489ccfa369350be02a 963,184.94216462 BNBNo117.738343792281292695 BNB
2021-11-20 8:26:0057 days 1 hr ago128011050x18e2ce1da966f8e4afde4a4639cd299b91163aec0x1f35a21d9bd83a476c255f489ccfa369350be02a 963,184.94216462 BNBNo117.465166114828782183 BNB
2021-11-20 8:25:0057 days 1 hr ago128010850x18e2ce1da966f8e4afde4a4639cd299b91163aec0x1f35a21d9bd83a476c255f489ccfa369350be02a 963,184.94216462 BNBNo117.028136940510839863 BNB
2021-11-20 8:24:0057 days 1 hr ago128010650x18e2ce1da966f8e4afde4a4639cd299b91163aec0x1f35a21d9bd83a476c255f489ccfa369350be02a 963,184.94216462 BNBNo116.580403576980123199 BNB
2021-11-20 8:23:0057 days 1 hr ago128010450x18e2ce1da966f8e4afde4a4639cd299b91163aec0x1f35a21d9bd83a476c255f489ccfa369350be02a 963,184.94216462 BNBNo116.578000660980123199 BNB
2021-11-20 8:22:0057 days 1 hr ago128010250x18e2ce1da966f8e4afde4a4639cd299b91163aec0x1f35a21d9bd83a476c255f489ccfa369350be02a 963,184.94216462 BNBNo116.256827450599085736 BNB
2021-11-20 8:21:0057 days 1 hr ago128010060x18e2ce1da966f8e4afde4a4639cd299b91163aec0x1f35a21d9bd83a476c255f489ccfa369350be02a 963,184.94216462 BNBNo116.256827450599085736 BNB
2021-11-20 8:20:0057 days 1 hr ago128009860x18e2ce1da966f8e4afde4a4639cd299b91163aec0x1f35a21d9bd83a476c255f489ccfa369350be02a 963,184.94216462 BNBNo115.926575965404064736 BNB
2021-11-20 8:19:0057 days 1 hr ago128009670x18e2ce1da966f8e4afde4a4639cd299b91163aec0x1f35a21d9bd83a476c255f489ccfa369350be02a 963,184.94216462 BNBNo115.926575965404064736 BNB
2021-11-20 8:18:0057 days 1 hr ago128009490x18e2ce1da966f8e4afde4a4639cd299b91163aec0x1f35a21d9bd83a476c255f489ccfa369350be02a 963,184.94216462 BNBNo115.912793904560903804 BNB
2021-11-20 8:17:0057 days 1 hr ago128009310x18e2ce1da966f8e4afde4a4639cd299b91163aec0x1f35a21d9bd83a476c255f489ccfa369350be02a 963,184.94216462 BNBNo115.85083979598673703 BNB
Block Uncle Number Difficulty Gas Used Reward
Loading
Loading
Make sure to use the "Vote Down" button for any spammy posts, and the "Vote Up" for interesting conversations.